sensor_id;sensor_type;location;lat;lon;timestamp;P1;durP1;ratioP1;P2;durP2;ratioP2
4464;SDS011;2245;48.136;13.428;2022-07-24T00:00:19;11.97;;;10.20;;
4464;SDS011;2245;48.136;13.428;2022-07-24T00:02:46;11.63;;;9.70;;
4464;SDS011;2245;48.136;13.428;2022-07-24T00:05:14;10.60;;;9.50;;
4464;SDS011;2245;48.136;13.428;2022-07-24T00:07:56;12.10;;;10.90;;
4464;SDS011;2245;48.136;13.428;2022-07-24T00:10:23;16.43;;;12.20;;
4464;SDS011;2245;48.136;13.428;2022-07-24T00:13:04;12.43;;;9.73;;
4464;SDS011;2245;48.136;13.428;2022-07-24T00:15:31;12.80;;;10.03;;
4464;SDS011;2245;48.136;13.428;2022-07-24T00:18:00;12.33;;;11.03;;
4464;SDS011;2245;48.136;13.428;2022-07-24T00:20:28;11.43;;;9.97;;
4464;SDS011;2245;48.136;13.428;2022-07-24T00:22:56;12.57;;;10.90;;
4464;SDS011;2245;48.136;13.428;2022-07-24T00:25:23;12.33;;;11.03;;
4464;SDS011;2245;48.136;13.428;2022-07-24T00:27:49;14.53;;;9.67;;
4464;SDS011;2245;48.136;13.428;2022-07-24T00:30:16;11.20;;;9.77;;
4464;SDS011;2245;48.136;13.428;2022-07-24T00:32:43;11.97;;;10.63;;
4464;SDS011;2245;48.136;13.428;2022-07-24T00:35:12;10.83;;;9.73;;
4464;SDS011;2245;48.136;13.428;2022-07-24T00:37:41;9.80;;;8.90;;
4464;SDS011;2245;48.136;13.428;2022-07-24T00:40:08;12.67;;;9.37;;
4464;SDS011;2245;48.136;13.428;2022-07-24T00:42:35;15.10;;;10.30;;
4464;SDS011;2245;48.136;13.428;2022-07-24T00:45:02;13.90;;;9.90;;
4464;SDS011;2245;48.136;13.428;2022-07-24T00:47:29;10.73;;;9.70;;
4464;SDS011;2245;48.136;13.428;2022-07-24T00:49:56;10.47;;;9.53;;
4464;SDS011;2245;48.136;13.428;2022-07-24T00:52:25;10.97;;;9.00;;
4464;SDS011;2245;48.136;13.428;2022-07-24T00:54:54;11.30;;;9.57;;
4464;SDS011;2245;48.136;13.428;2022-07-24T00:57:22;11.93;;;10.00;;
4464;SDS011;2245;48.136;13.428;2022-07-24T00:59:48;10.20;;;9.20;;
4464;SDS011;2245;48.136;13.428;2022-07-24T01:02:16;10.70;;;8.80;;
4464;SDS011;2245;48.136;13.428;2022-07-24T01:04:43;10.50;;;9.40;;
4464;SDS011;2245;48.136;13.428;2022-07-24T01:07:10;19.33;;;10.40;;
4464;SDS011;2245;48.136;13.428;2022-07-24T01:09:37;10.97;;;9.93;;
4464;SDS011;2245;48.136;13.428;2022-07-24T01:12:06;11.40;;;10.17;;
4464;SDS011;2245;48.136;13.428;2022-07-24T01:14:34;10.03;;;8.90;;
4464;SDS011;2245;48.136;13.428;2022-07-24T01:17:01;14.37;;;10.80;;
4464;SDS011;2245;48.136;13.428;2022-07-24T01:19:28;13.17;;;9.57;;
4464;SDS011;2245;48.136;13.428;2022-07-24T01:21:56;14.13;;;10.40;;
4464;SDS011;2245;48.136;13.428;2022-07-24T01:24:26;11.10;;;9.93;;
4464;SDS011;2245;48.136;13.428;2022-07-24T01:26:53;13.23;;;10.60;;
4464;SDS011;2245;48.136;13.428;2022-07-24T01:29:20;15.20;;;11.27;;
4464;SDS011;2245;48.136;13.428;2022-07-24T01:31:47;11.47;;;9.47;;
4464;SDS011;2245;48.136;13.428;2022-07-24T01:34:14;12.90;;;10.27;;
4464;SDS011;2245;48.136;13.428;2022-07-24T01:36:41;12.03;;;9.37;;
4464;SDS011;2245;48.136;13.428;2022-07-24T01:39:10;10.47;;;9.37;;
4464;SDS011;2245;48.136;13.428;2022-07-24T01:41:37;14.27;;;11.43;;
4464;SDS011;2245;48.136;13.428;2022-07-24T01:44:04;11.37;;;10.17;;
4464;SDS011;2245;48.136;13.428;2022-07-24T01:46:31;15.07;;;11.30;;
4464;SDS011;2245;48.136;13.428;2022-07-24T01:48:58;14.37;;;12.00;;
4464;SDS011;2245;48.136;13.428;2022-07-24T01:51:25;18.47;;;11.83;;
4464;SDS011;2245;48.136;13.428;2022-07-24T01:53:51;13.53;;;10.50;;
4464;SDS011;2245;48.136;13.428;2022-07-24T01:56:20;16.43;;;11.47;;
4464;SDS011;2245;48.136;13.428;2022-07-24T01:59:00;12.50;;;10.40;;
4464;SDS011;2245;48.136;13.428;2022-07-24T02:01:27;12.30;;;11.00;;
4464;SDS011;2245;48.136;13.428;2022-07-24T02:03:56;13.37;;;10.97;;
4464;SDS011;2245;48.136;13.428;2022-07-24T02:06:23;14.73;;;10.50;;
4464;SDS011;2245;48.136;13.428;2022-07-24T02:08:49;12.37;;;10.83;;
4464;SDS011;2245;48.136;13.428;2022-07-24T02:11:32;17.23;;;10.37;;
4464;SDS011;2245;48.136;13.428;2022-07-24T02:14:00;13.77;;;10.23;;
4464;SDS011;2245;48.136;13.428;2022-07-24T02:16:27;13.07;;;11.37;;
4464;SDS011;2245;48.136;13.428;2022-07-24T02:19:36;17.40;;;10.20;;
4464;SDS011;2245;48.136;13.428;2022-07-24T02:22:03;13.63;;;11.40;;
4464;SDS011;2245;48.136;13.428;2022-07-24T02:24:30;13.77;;;10.47;;
4464;SDS011;2245;48.136;13.428;2022-07-24T02:26:58;12.07;;;10.67;;
4464;SDS011;2245;48.136;13.428;2022-07-24T02:29:39;11.83;;;10.40;;
4464;SDS011;2245;48.136;13.428;2022-07-24T02:32:06;15.33;;;11.13;;
4464;SDS011;2245;48.136;13.428;2022-07-24T02:34:33;13.10;;;10.83;;
4464;SDS011;2245;48.136;13.428;2022-07-24T02:37:00;12.30;;;10.60;;
4464;SDS011;2245;48.136;13.428;2022-07-24T02:39:41;14.13;;;11.10;;
4464;SDS011;2245;48.136;13.428;2022-07-24T02:42:10;14.20;;;10.57;;
4464;SDS011;2245;48.136;13.428;2022-07-24T02:44:37;14.60;;;11.03;;
4464;SDS011;2245;48.136;13.428;2022-07-24T02:47:04;15.47;;;11.50;;
4464;SDS011;2245;48.136;13.428;2022-07-24T02:49:31;12.77;;;10.77;;
4464;SDS011;2245;48.136;13.428;2022-07-24T02:52:13;15.73;;;11.10;;
4464;SDS011;2245;48.136;13.428;2022-07-24T02:54:40;13.50;;;10.77;;
4464;SDS011;2245;48.136;13.428;2022-07-24T02:57:07;17.00;;;11.13;;
4464;SDS011;2245;48.136;13.428;2022-07-24T02:59:35;13.07;;;11.77;;
4464;SDS011;2245;48.136;13.428;2022-07-24T03:02:16;15.33;;;12.47;;
4464;SDS011;2245;48.136;13.428;2022-07-24T03:04:43;11.93;;;10.17;;
4464;SDS011;2245;48.136;13.428;2022-07-24T03:07:10;14.10;;;11.40;;
4464;SDS011;2245;48.136;13.428;2022-07-24T03:09:38;14.70;;;10.80;;
4464;SDS011;2245;48.136;13.428;2022-07-24T03:12:05;13.07;;;10.30;;
4464;SDS011;2245;48.136;13.428;2022-07-24T03:14:54;13.23;;;11.47;;
4464;SDS011;2245;48.136;13.428;2022-07-24T03:17:34;12.50;;;11.20;;
4464;SDS011;2245;48.136;13.428;2022-07-24T03:20:12;16.37;;;11.23;;
4464;SDS011;2245;48.136;13.428;2022-07-24T03:22:38;15.30;;;12.20;;
4464;SDS011;2245;48.136;13.428;2022-07-24T03:25:06;12.00;;;10.50;;
4464;SDS011;2245;48.136;13.428;2022-07-24T03:27:33;12.67;;;11.10;;
4464;SDS011;2245;48.136;13.428;2022-07-24T03:30:02;11.77;;;10.57;;
4464;SDS011;2245;48.136;13.428;2022-07-24T03:32:43;15.73;;;11.57;;
4464;SDS011;2245;48.136;13.428;2022-07-24T03:35:10;12.33;;;11.00;;
4464;SDS011;2245;48.136;13.428;2022-07-24T03:37:37;18.40;;;11.63;;
4464;SDS011;2245;48.136;13.428;2022-07-24T03:40:13;15.27;;;11.63;;
4464;SDS011;2245;48.136;13.428;2022-07-24T03:42:40;16.17;;;11.33;;
4464;SDS011;2245;48.136;13.428;2022-07-24T03:45:09;18.97;;;13.43;;
4464;SDS011;2245;48.136;13.428;2022-07-24T03:47:37;18.80;;;11.20;;
4464;SDS011;2245;48.136;13.428;2022-07-24T03:50:04;11.93;;;10.73;;
4464;SDS011;2245;48.136;13.428;2022-07-24T03:52:45;15.17;;;10.47;;
4464;SDS011;2245;48.136;13.428;2022-07-24T03:55:12;12.40;;;10.37;;
4464;SDS011;2245;48.136;13.428;2022-07-24T03:57:39;14.87;;;11.50;;
4464;SDS011;2245;48.136;13.428;2022-07-24T04:00:06;13.30;;;11.23;;
4464;SDS011;2245;48.136;13.428;2022-07-24T04:05:39;15.40;;;11.67;;
4464;SDS011;2245;48.136;13.428;2022-07-24T04:08:20;14.70;;;11.13;;
4464;SDS011;2245;48.136;13.428;2022-07-24T04:10:46;14.17;;;11.13;;
4464;SDS011;2245;48.136;13.428;2022-07-24T04:13:14;19.90;;;11.57;;
4464;SDS011;2245;48.136;13.428;2022-07-24T04:15:40;15.70;;;11.70;;
4464;SDS011;2245;48.136;13.428;2022-07-24T04:18:07;20.60;;;12.23;;
4464;SDS011;2245;48.136;13.428;2022-07-24T04:20:49;17.60;;;12.03;;
4464;SDS011;2245;48.136;13.428;2022-07-24T04:23:19;13.20;;;11.10;;
4464;SDS011;2245;48.136;13.428;2022-07-24T04:25:46;22.33;;;12.60;;
4464;SDS011;2245;48.136;13.428;2022-07-24T04:28:12;15.30;;;12.00;;
4464;SDS011;2245;48.136;13.428;2022-07-24T04:30:39;12.60;;;11.37;;
4464;SDS011;2245;48.136;13.428;2022-07-24T04:33:06;11.80;;;10.57;;
4464;SDS011;2245;48.136;13.428;2022-07-24T04:35:33;13.00;;;11.70;;
4464;SDS011;2245;48.136;13.428;2022-07-24T04:38:01;12.10;;;10.87;;
4464;SDS011;2245;48.136;13.428;2022-07-24T04:40:28;12.80;;;11.37;;
4464;SDS011;2245;48.136;13.428;2022-07-24T04:42:55;12.23;;;10.13;;
4464;SDS011;2245;48.136;13.428;2022-07-24T04:45:22;11.43;;;10.30;;
4464;SDS011;2245;48.136;13.428;2022-07-24T04:47:49;10.40;;;9.50;;
4464;SDS011;2245;48.136;13.428;2022-07-24T04:50:16;13.33;;;9.93;;
4464;SDS011;2245;48.136;13.428;2022-07-24T04:52:43;12.03;;;10.90;;
4464;SDS011;2245;48.136;13.428;2022-07-24T04:55:11;12.30;;;11.00;;
4464;SDS011;2245;48.136;13.428;2022-07-24T04:57:52;16.57;;;14.70;;
4464;SDS011;2245;48.136;13.428;2022-07-24T05:00:19;12.97;;;11.77;;
4464;SDS011;2245;48.136;13.428;2022-07-24T05:02:46;15.33;;;13.33;;
4464;SDS011;2245;48.136;13.428;2022-07-24T05:05:13;12.73;;;11.53;;
4464;SDS011;2245;48.136;13.428;2022-07-24T05:07:39;24.30;;;17.90;;
4464;SDS011;2245;48.136;13.428;2022-07-24T05:10:07;16.00;;;13.53;;
4464;SDS011;2245;48.136;13.428;2022-07-24T05:12:35;10.80;;;9.80;;
4464;SDS011;2245;48.136;13.428;2022-07-24T05:15:03;11.40;;;9.80;;
4464;SDS011;2245;48.136;13.428;2022-07-24T05:17:31;11.97;;;10.50;;
4464;SDS011;2245;48.136;13.428;2022-07-24T05:20:12;10.63;;;9.73;;
4464;SDS011;2245;48.136;13.428;2022-07-24T05:22:38;10.70;;;9.80;;
4464;SDS011;2245;48.136;13.428;2022-07-24T05:25:06;15.73;;;10.53;;
4464;SDS011;2245;48.136;13.428;2022-07-24T05:27:37;17.13;;;12.47;;
4464;SDS011;2245;48.136;13.428;2022-07-24T05:30:05;29.40;;;18.83;;
4464;SDS011;2245;48.136;13.428;2022-07-24T05:32:33;21.83;;;13.37;;
4464;SDS011;2245;48.136;13.428;2022-07-24T05:35:00;20.33;;;12.93;;
4464;SDS011;2245;48.136;13.428;2022-07-24T05:37:41;13.60;;;11.33;;
4464;SDS011;2245;48.136;13.428;2022-07-24T05:40:08;12.90;;;10.50;;
4464;SDS011;2245;48.136;13.428;2022-07-24T05:42:37;20.97;;;11.63;;
4464;SDS011;2245;48.136;13.428;2022-07-24T05:45:05;14.73;;;11.50;;
4464;SDS011;2245;48.136;13.428;2022-07-24T05:47:34;14.20;;;9.97;;
4464;SDS011;2245;48.136;13.428;2022-07-24T05:50:02;12.33;;;10.07;;
4464;SDS011;2245;48.136;13.428;2022-07-24T05:52:34;12.33;;;9.27;;
4464;SDS011;2245;48.136;13.428;2022-07-24T05:55:01;14.87;;;10.40;;
4464;SDS011;2245;48.136;13.428;2022-07-24T05:57:28;10.10;;;9.20;;
4464;SDS011;2245;48.136;13.428;2022-07-24T05:59:57;11.37;;;10.20;;
4464;SDS011;2245;48.136;13.428;2022-07-24T06:02:23;13.50;;;11.33;;
4464;SDS011;2245;48.136;13.428;2022-07-24T06:04:50;12.07;;;10.87;;
4464;SDS011;2245;48.136;13.428;2022-07-24T06:07:17;11.57;;;10.57;;
4464;SDS011;2245;48.136;13.428;2022-07-24T06:09:44;10.30;;;9.50;;
4464;SDS011;2245;48.136;13.428;2022-07-24T06:12:11;14.10;;;12.03;;
4464;SDS011;2245;48.136;13.428;2022-07-24T06:14:38;14.67;;;13.37;;
4464;SDS011;2245;48.136;13.428;2022-07-24T06:17:06;12.57;;;11.30;;
4464;SDS011;2245;48.136;13.428;2022-07-24T06:19:34;11.50;;;10.40;;
4464;SDS011;2245;48.136;13.428;2022-07-24T06:22:01;10.18;;;9.38;;
4464;SDS011;2245;48.136;13.428;2022-07-24T06:24:28;8.73;;;8.02;;
4464;SDS011;2245;48.136;13.428;2022-07-24T06:26:55;10.65;;;9.40;;
4464;SDS011;2245;48.136;13.428;2022-07-24T06:29:22;9.40;;;8.68;;
4464;SDS011;2245;48.136;13.428;2022-07-24T06:31:49;10.00;;;9.02;;
4464;SDS011;2245;48.136;13.428;2022-07-24T06:34:17;8.73;;;8.02;;
4464;SDS011;2245;48.136;13.428;2022-07-24T06:36:49;8.88;;;8.18;;
4464;SDS011;2245;48.136;13.428;2022-07-24T06:39:16;9.00;;;8.40;;
4464;SDS011;2245;48.136;13.428;2022-07-24T06:41:43;8.95;;;8.15;;
4464;SDS011;2245;48.136;13.428;2022-07-24T06:44:12;8.80;;;8.10;;
4464;SDS011;2245;48.136;13.428;2022-07-24T06:46:39;10.05;;;8.48;;
4464;SDS011;2245;48.136;13.428;2022-07-24T06:49:06;13.15;;;9.07;;
4464;SDS011;2245;48.136;13.428;2022-07-24T06:51:34;8.07;;;7.47;;
4464;SDS011;2245;48.136;13.428;2022-07-24T06:54:01;8.80;;;8.20;;
4464;SDS011;2245;48.136;13.428;2022-07-24T06:56:28;8.90;;;8.13;;
4464;SDS011;2245;48.136;13.428;2022-07-24T06:58:55;9.80;;;9.02;;
4464;SDS011;2245;48.136;13.428;2022-07-24T07:01:23;8.73;;;8.13;;
4464;SDS011;2245;48.136;13.428;2022-07-24T07:03:51;8.52;;;7.93;;
4464;SDS011;2245;48.136;13.428;2022-07-24T07:06:18;8.27;;;7.68;;
4464;SDS011;2245;48.136;13.428;2022-07-24T07:08:46;8.15;;;7.47;;
4464;SDS011;2245;48.136;13.428;2022-07-24T07:11:13;7.72;;;7.22;;
4464;SDS011;2245;48.136;13.428;2022-07-24T07:13:40;8.82;;;8.13;;
4464;SDS011;2245;48.136;13.428;2022-07-24T07:16:07;8.30;;;7.50;;
4464;SDS011;2245;48.136;13.428;2022-07-24T07:18:34;8.25;;;7.63;;
4464;SDS011;2245;48.136;13.428;2022-07-24T07:21:01;9.45;;;8.85;;
4464;SDS011;2245;48.136;13.428;2022-07-24T07:23:28;8.20;;;7.38;;
4464;SDS011;2245;48.136;13.428;2022-07-24T07:25:57;7.72;;;7.20;;
4464;SDS011;2245;48.136;13.428;2022-07-24T07:28:24;7.85;;;7.30;;
4464;SDS011;2245;48.136;13.428;2022-07-24T07:30:51;8.73;;;8.02;;
4464;SDS011;2245;48.136;13.428;2022-07-24T07:33:18;8.48;;;7.88;;
4464;SDS011;2245;48.136;13.428;2022-07-24T07:35:45;9.98;;;9.18;;
4464;SDS011;2245;48.136;13.428;2022-07-24T07:38:11;7.75;;;7.35;;
4464;SDS011;2245;48.136;13.428;2022-07-24T07:40:38;8.90;;;8.25;;
4464;SDS011;2245;48.136;13.428;2022-07-24T07:43:06;11.90;;;9.00;;
4464;SDS011;2245;48.136;13.428;2022-07-24T07:45:33;9.40;;;8.50;;
4464;SDS011;2245;48.136;13.428;2022-07-24T07:48:00;7.95;;;7.45;;
4464;SDS011;2245;48.136;13.428;2022-07-24T07:50:27;9.18;;;8.43;;
4464;SDS011;2245;48.136;13.428;2022-07-24T07:52:54;9.48;;;8.68;;
4464;SDS011;2245;48.136;13.428;2022-07-24T07:55:21;8.63;;;7.93;;
4464;SDS011;2245;48.136;13.428;2022-07-24T07:57:48;9.23;;;8.52;;
4464;SDS011;2245;48.136;13.428;2022-07-24T08:00:17;9.38;;;8.60;;
4464;SDS011;2245;48.136;13.428;2022-07-24T08:02:44;8.38;;;7.78;;
4464;SDS011;2245;48.136;13.428;2022-07-24T08:05:11;7.75;;;7.25;;
4464;SDS011;2245;48.136;13.428;2022-07-24T08:07:38;8.90;;;8.20;;
4464;SDS011;2245;48.136;13.428;2022-07-24T08:10:05;9.52;;;8.82;;
4464;SDS011;2245;48.136;13.428;2022-07-24T08:12:33;11.02;;;9.13;;
4464;SDS011;2245;48.136;13.428;2022-07-24T08:15:00;8.75;;;8.15;;
4464;SDS011;2245;48.136;13.428;2022-07-24T08:17:28;8.63;;;8.10;;
4464;SDS011;2245;48.136;13.428;2022-07-24T08:19:55;9.02;;;8.35;;
4464;SDS011;2245;48.136;13.428;2022-07-24T08:22:22;10.05;;;9.40;;
4464;SDS011;2245;48.136;13.428;2022-07-24T08:24:49;9.93;;;9.30;;
4464;SDS011;2245;48.136;13.428;2022-07-24T08:27:16;8.75;;;8.23;;
4464;SDS011;2245;48.136;13.428;2022-07-24T08:29:43;9.48;;;8.55;;
4464;SDS011;2245;48.136;13.428;2022-07-24T08:32:10;9.88;;;9.18;;
4464;SDS011;2245;48.136;13.428;2022-07-24T08:34:38;10.82;;;9.80;;
4464;SDS011;2245;48.136;13.428;2022-07-24T08:37:05;10.10;;;9.23;;
4464;SDS011;2245;48.136;13.428;2022-07-24T08:39:32;9.95;;;9.15;;
4464;SDS011;2245;48.136;13.428;2022-07-24T08:41:59;9.80;;;9.10;;
4464;SDS011;2245;48.136;13.428;2022-07-24T08:44:25;11.43;;;10.55;;
4464;SDS011;2245;48.136;13.428;2022-07-24T08:46:53;10.73;;;9.82;;
4464;SDS011;2245;48.136;13.428;2022-07-24T08:49:20;11.27;;;10.38;;
4464;SDS011;2245;48.136;13.428;2022-07-24T08:51:49;11.23;;;10.45;;
4464;SDS011;2245;48.136;13.428;2022-07-24T08:54:16;10.23;;;9.30;;
4464;SDS011;2245;48.136;13.428;2022-07-24T08:56:44;11.05;;;9.90;;
4464;SDS011;2245;48.136;13.428;2022-07-24T08:59:15;9.30;;;8.60;;
4464;SDS011;2245;48.136;13.428;2022-07-24T09:01:43;11.13;;;9.10;;
4464;SDS011;2245;48.136;13.428;2022-07-24T09:07:04;9.23;;;8.63;;
4464;SDS011;2245;48.136;13.428;2022-07-24T09:09:31;8.88;;;8.07;;
4464;SDS011;2245;48.136;13.428;2022-07-24T09:12:05;8.57;;;7.97;;
4464;SDS011;2245;48.136;13.428;2022-07-24T09:14:34;8.77;;;8.02;;
4464;SDS011;2245;48.136;13.428;2022-07-24T09:17:03;10.90;;;8.00;;
4464;SDS011;2245;48.136;13.428;2022-07-24T09:19:44;8.50;;;7.85;;
4464;SDS011;2245;48.136;13.428;2022-07-24T09:22:19;9.00;;;7.80;;
4464;SDS011;2245;48.136;13.428;2022-07-24T09:25:02;9.07;;;8.48;;
4464;SDS011;2245;48.136;13.428;2022-07-24T09:27:32;8.85;;;8.15;;
4464;SDS011;2245;48.136;13.428;2022-07-24T09:29:59;9.73;;;9.02;;
4464;SDS011;2245;48.136;13.428;2022-07-24T09:32:26;9.20;;;8.60;;
4464;SDS011;2245;48.136;13.428;2022-07-24T09:34:53;9.52;;;8.63;;
4464;SDS011;2245;48.136;13.428;2022-07-24T09:37:22;9.10;;;8.30;;
4464;SDS011;2245;48.136;13.428;2022-07-24T09:39:52;9.88;;;8.95;;
4464;SDS011;2245;48.136;13.428;2022-07-24T09:42:19;8.80;;;8.13;;
4464;SDS011;2245;48.136;13.428;2022-07-24T09:44:56;9.02;;;8.30;;
4464;SDS011;2245;48.136;13.428;2022-07-24T09:47:24;9.80;;;8.90;;
4464;SDS011;2245;48.136;13.428;2022-07-24T09:49:51;9.88;;;9.02;;
4464;SDS011;2245;48.136;13.428;2022-07-24T09:52:31;10.20;;;9.40;;
4464;SDS011;2245;48.136;13.428;2022-07-24T09:54:59;16.23;;;9.87;;
4464;SDS011;2245;48.136;13.428;2022-07-24T09:57:27;10.27;;;9.43;;
4464;SDS011;2245;48.136;13.428;2022-07-24T09:59:55;11.70;;;10.10;;
4464;SDS011;2245;48.136;13.428;2022-07-24T10:02:24;11.27;;;10.17;;
4464;SDS011;2245;48.136;13.428;2022-07-24T10:04:53;12.00;;;11.00;;
4464;SDS011;2245;48.136;13.428;2022-07-24T10:07:32;10.80;;;9.90;;
4464;SDS011;2245;48.136;13.428;2022-07-24T10:10:01;10.40;;;9.40;;
4464;SDS011;2245;48.136;13.428;2022-07-24T10:12:29;10.00;;;9.20;;
4464;SDS011;2245;48.136;13.428;2022-07-24T10:14:57;11.17;;;10.17;;
4464;SDS011;2245;48.136;13.428;2022-07-24T10:17:29;10.87;;;9.37;;
4464;SDS011;2245;48.136;13.428;2022-07-24T10:20:08;12.03;;;10.83;;
4464;SDS011;2245;48.136;13.428;2022-07-24T10:22:38;12.10;;;11.00;;
4464;SDS011;2245;48.136;13.428;2022-07-24T10:25:14;16.80;;;10.70;;
4464;SDS011;2245;48.136;13.428;2022-07-24T10:27:45;13.63;;;12.23;;
4464;SDS011;2245;48.136;13.428;2022-07-24T10:30:16;13.83;;;12.30;;
4464;SDS011;2245;48.136;13.428;2022-07-24T10:32:43;11.90;;;10.73;;
4464;SDS011;2245;48.136;13.428;2022-07-24T10:35:15;12.47;;;11.17;;
4464;SDS011;2245;48.136;13.428;2022-07-24T10:37:48;12.63;;;10.80;;
4464;SDS011;2245;48.136;13.428;2022-07-24T10:40:24;11.27;;;9.97;;
4464;SDS011;2245;48.136;13.428;2022-07-24T10:43:14;11.47;;;10.37;;
4464;SDS011;2245;48.136;13.428;2022-07-24T10:45:42;11.63;;;10.50;;
4464;SDS011;2245;48.136;13.428;2022-07-24T10:48:26;18.00;;;10.67;;
4464;SDS011;2245;48.136;13.428;2022-07-24T10:53:50;12.03;;;11.03;;
4464;SDS011;2245;48.136;13.428;2022-07-24T10:56:19;12.10;;;10.87;;
4464;SDS011;2245;48.136;13.428;2022-07-24T10:58:59;11.37;;;10.30;;
4464;SDS011;2245;48.136;13.428;2022-07-24T11:01:32;17.53;;;11.13;;
4464;SDS011;2245;48.136;13.428;2022-07-24T11:04:04;12.43;;;11.17;;
4464;SDS011;2245;48.136;13.428;2022-07-24T11:06:52;19.57;;;11.33;;
4464;SDS011;2245;48.136;13.428;2022-07-24T11:09:21;12.63;;;10.50;;
4464;SDS011;2245;48.136;13.428;2022-07-24T11:12:05;12.30;;;11.00;;
4464;SDS011;2245;48.136;13.428;2022-07-24T11:20:05;13.20;;;11.93;;
4464;SDS011;2245;48.136;13.428;2022-07-24T11:22:37;11.50;;;9.97;;
4464;SDS011;2245;48.136;13.428;2022-07-24T11:25:10;12.30;;;11.00;;
4464;SDS011;2245;48.136;13.428;2022-07-24T11:27:55;13.73;;;10.17;;
4464;SDS011;2245;48.136;13.428;2022-07-24T11:30:24;12.13;;;11.03;;
4464;SDS011;2245;48.136;13.428;2022-07-24T11:32:52;11.07;;;10.00;;
4464;SDS011;2245;48.136;13.428;2022-07-24T11:35:26;10.50;;;9.40;;
4464;SDS011;2245;48.136;13.428;2022-07-24T11:37:56;11.10;;;10.00;;
4464;SDS011;2245;48.136;13.428;2022-07-24T11:40:40;14.43;;;10.50;;
4464;SDS011;2245;48.136;13.428;2022-07-24T11:45:35;9.33;;;8.50;;
4464;SDS011;2245;48.136;13.428;2022-07-24T11:48:02;9.90;;;8.90;;
4464;SDS011;2245;48.136;13.428;2022-07-24T11:50:29;11.17;;;9.60;;
4464;SDS011;2245;48.136;13.428;2022-07-24T11:52:57;11.97;;;9.30;;
4464;SDS011;2245;48.136;13.428;2022-07-24T11:55:24;11.57;;;10.50;;
4464;SDS011;2245;48.136;13.428;2022-07-24T11:57:54;10.17;;;9.17;;
4464;SDS011;2245;48.136;13.428;2022-07-24T12:00:22;10.30;;;9.40;;
4464;SDS011;2245;48.136;13.428;2022-07-24T12:02:51;12.53;;;10.47;;
4464;SDS011;2245;48.136;13.428;2022-07-24T12:05:24;11.63;;;9.83;;
4464;SDS011;2245;48.136;13.428;2022-07-24T12:07:52;11.07;;;9.50;;
4464;SDS011;2245;48.136;13.428;2022-07-24T12:10:21;11.17;;;9.97;;
4464;SDS011;2245;48.136;13.428;2022-07-24T12:12:48;10.90;;;9.60;;
4464;SDS011;2245;48.136;13.428;2022-07-24T12:15:17;10.77;;;9.67;;
4464;SDS011;2245;48.136;13.428;2022-07-24T12:20:31;12.03;;;9.43;;
4464;SDS011;2245;48.136;13.428;2022-07-24T12:22:59;11.20;;;10.03;;
4464;SDS011;2245;48.136;13.428;2022-07-24T12:25:27;10.03;;;9.13;;
4464;SDS011;2245;48.136;13.428;2022-07-24T12:28:01;12.33;;;9.23;;
4464;SDS011;2245;48.136;13.428;2022-07-24T12:30:31;11.10;;;9.23;;
4464;SDS011;2245;48.136;13.428;2022-07-24T12:33:02;11.23;;;9.73;;
4464;SDS011;2245;48.136;13.428;2022-07-24T12:35:30;11.20;;;9.70;;
4464;SDS011;2245;48.136;13.428;2022-07-24T12:37:58;11.37;;;10.13;;
4464;SDS011;2245;48.136;13.428;2022-07-24T12:40:29;10.17;;;8.87;;
4464;SDS011;2245;48.136;13.428;2022-07-24T12:42:58;9.70;;;8.80;;
4464;SDS011;2245;48.136;13.428;2022-07-24T12:45:28;14.40;;;9.70;;
4464;SDS011;2245;48.136;13.428;2022-07-24T12:48:10;11.47;;;9.20;;
4464;SDS011;2245;48.136;13.428;2022-07-24T12:50:57;10.17;;;9.10;;
4464;SDS011;2245;48.136;13.428;2022-07-24T12:53:29;11.77;;;9.37;;
4464;SDS011;2245;48.136;13.428;2022-07-24T12:56:07;10.43;;;9.47;;
4464;SDS011;2245;48.136;13.428;2022-07-24T12:58:52;11.27;;;10.00;;
4464;SDS011;2245;48.136;13.428;2022-07-24T13:01:24;14.00;;;9.63;;
4464;SDS011;2245;48.136;13.428;2022-07-24T13:03:59;9.87;;;8.97;;
4464;SDS011;2245;48.136;13.428;2022-07-24T13:06:33;8.97;;;8.07;;
4464;SDS011;2245;48.136;13.428;2022-07-24T13:09:01;14.60;;;9.17;;
4464;SDS011;2245;48.136;13.428;2022-07-24T13:11:29;10.33;;;9.33;;
4464;SDS011;2245;48.136;13.428;2022-07-24T13:13:56;10.40;;;9.40;;
4464;SDS011;2245;48.136;13.428;2022-07-24T13:16:26;10.60;;;9.57;;
4464;SDS011;2245;48.136;13.428;2022-07-24T13:18:54;11.13;;;9.67;;
4464;SDS011;2245;48.136;13.428;2022-07-24T13:21:22;12.40;;;9.20;;
4464;SDS011;2245;48.136;13.428;2022-07-24T13:23:49;10.20;;;9.30;;
4464;SDS011;2245;48.136;13.428;2022-07-24T13:26:16;10.83;;;9.03;;
4464;SDS011;2245;48.136;13.428;2022-07-24T13:28:43;10.33;;;9.30;;
4464;SDS011;2245;48.136;13.428;2022-07-24T13:31:10;9.90;;;8.90;;
4464;SDS011;2245;48.136;13.428;2022-07-24T13:33:37;10.10;;;9.00;;
4464;SDS011;2245;48.136;13.428;2022-07-24T13:36:04;11.33;;;8.60;;
4464;SDS011;2245;48.136;13.428;2022-07-24T13:38:39;9.70;;;8.70;;
4464;SDS011;2245;48.136;13.428;2022-07-24T13:41:06;10.37;;;9.37;;
4464;SDS011;2245;48.136;13.428;2022-07-24T13:43:33;11.80;;;9.80;;
4464;SDS011;2245;48.136;13.428;2022-07-24T13:46:00;9.00;;;8.10;;
4464;SDS011;2245;48.136;13.428;2022-07-24T13:48:27;10.30;;;8.87;;
4464;SDS011;2245;48.136;13.428;2022-07-24T13:50:54;10.17;;;9.10;;
4464;SDS011;2245;48.136;13.428;2022-07-24T13:53:21;10.57;;;9.57;;
4464;SDS011;2245;48.136;13.428;2022-07-24T13:55:50;10.80;;;9.70;;
4464;SDS011;2245;48.136;13.428;2022-07-24T13:58:17;10.80;;;9.90;;
4464;SDS011;2245;48.136;13.428;2022-07-24T14:00:43;10.73;;;9.37;;
4464;SDS011;2245;48.136;13.428;2022-07-24T14:03:10;10.63;;;8.83;;
4464;SDS011;2245;48.136;13.428;2022-07-24T14:05:37;11.10;;;9.63;;
4464;SDS011;2245;48.136;13.428;2022-07-24T14:08:04;10.07;;;9.10;;
4464;SDS011;2245;48.136;13.428;2022-07-24T14:10:31;12.93;;;9.00;;
4464;SDS011;2245;48.136;13.428;2022-07-24T14:12:59;10.63;;;9.33;;
4464;SDS011;2245;48.136;13.428;2022-07-24T14:15:26;9.90;;;8.90;;
4464;SDS011;2245;48.136;13.428;2022-07-24T14:17:55;9.87;;;8.90;;
4464;SDS011;2245;48.136;13.428;2022-07-24T14:20:22;10.27;;;9.47;;
4464;SDS011;2245;48.136;13.428;2022-07-24T14:22:48;11.43;;;9.37;;
4464;SDS011;2245;48.136;13.428;2022-07-24T14:25:15;10.83;;;9.27;;
4464;SDS011;2245;48.136;13.428;2022-07-24T14:27:42;9.47;;;8.50;;
4464;SDS011;2245;48.136;13.428;2022-07-24T14:30:11;8.73;;;7.93;;
4464;SDS011;2245;48.136;13.428;2022-07-24T14:32:38;9.63;;;8.80;;
4464;SDS011;2245;48.136;13.428;2022-07-24T14:35:05;10.50;;;9.60;;
4464;SDS011;2245;48.136;13.428;2022-07-24T14:37:33;9.63;;;8.63;;
4464;SDS011;2245;48.136;13.428;2022-07-24T14:40:00;10.37;;;9.37;;
4464;SDS011;2245;48.136;13.428;2022-07-24T14:42:27;10.50;;;9.50;;
4464;SDS011;2245;48.136;13.428;2022-07-24T14:44:54;10.20;;;9.20;;
4464;SDS011;2245;48.136;13.428;2022-07-24T14:47:23;10.00;;;9.00;;
4464;SDS011;2245;48.136;13.428;2022-07-24T14:49:49;9.83;;;8.90;;
4464;SDS011;2245;48.136;13.428;2022-07-24T14:52:16;11.53;;;8.87;;
4464;SDS011;2245;48.136;13.428;2022-07-24T14:54:44;10.57;;;9.63;;
4464;SDS011;2245;48.136;13.428;2022-07-24T14:57:11;12.47;;;8.90;;
4464;SDS011;2245;48.136;13.428;2022-07-24T14:59:38;10.30;;;9.33;;
4464;SDS011;2245;48.136;13.428;2022-07-24T15:02:05;11.73;;;9.33;;
4464;SDS011;2245;48.136;13.428;2022-07-24T15:04:34;9.60;;;8.60;;
4464;SDS011;2245;48.136;13.428;2022-07-24T15:07:01;9.50;;;8.60;;
4464;SDS011;2245;48.136;13.428;2022-07-24T15:09:28;10.17;;;9.27;;
4464;SDS011;2245;48.136;13.428;2022-07-24T15:11:55;11.33;;;9.10;;
4464;SDS011;2245;48.136;13.428;2022-07-24T15:14:22;11.47;;;9.17;;
4464;SDS011;2245;48.136;13.428;2022-07-24T15:16:49;10.50;;;9.37;;